Time;durP1;ratioP1;P1;durP2;ratioP2;P2;SDS_P1;SDS_P2;PMS_P1;PMS_P2;Temp;Humidity;BMP_temperature;BMP_pressure;BME280_temperature;BME280_humidity;BME280_pressure;Samples;Min_cycle;Max_cycle;Signal;HPM_P1;HPM_P2
2022/11/13 00:01:24;;;;;;;108.47;39.73;;;11.30;95.50;;;;;;5028401;28;20347;-68
2022/11/13 00:04:10;;;;;;;91.97;38.63;;;11.30;95.60;;;;;;5022800;28;20843;-68
2022/11/13 00:06:55;;;;;;;98.23;39.53;;;11.30;95.70;;;;;;5021868;28;20215;-68
2022/11/13 00:09:43;;;;;;;93.60;40.03;;;11.30;95.80;;;;;;5026400;28;20272;-69
2022/11/13 00:12:29;;;;;;;107.90;42.03;;;11.40;95.90;;;;;;5025493;28;20291;-69
2022/11/13 00:15:15;;;;;;;121.70;42.33;;;11.40;95.90;;;;;;5025852;28;20216;-69
2022/11/13 00:18:01;;;;;;;110.17;39.07;;;11.50;96.00;;;;;;5025506;28;20219;-68
2022/11/13 00:20:47;;;;;;;114.67;42.70;;;11.50;96.00;;;;;;5023121;28;20266;-68
2022/11/13 00:23:34;;;;;;;114.43;44.43;;;11.50;96.00;;;;;;5023360;28;20248;-69
2022/11/13 00:26:25;;;;;;;126.57;40.30;;;11.50;96.00;;;;;;5024774;28;20221;-69
2022/11/13 00:29:10;;;;;;;189.50;43.97;;;11.50;96.10;;;;;;5026020;28;20637;-69
2022/11/13 00:31:55;;;;;;;128.40;42.87;;;11.50;96.20;;;;;;5020378;28;20233;-69
2022/11/13 00:34:41;;;;;;;241.70;43.50;;;11.50;96.20;;;;;;5025250;28;20276;-68
2022/11/13 00:37:34;;;;;;;131.30;38.03;;;11.50;96.30;;;;;;5024205;28;20288;-68
2022/11/13 00:40:19;;;;;;;104.73;41.00;;;11.50;96.30;;;;;;5025518;28;20255;-69
2022/11/13 00:43:05;;;;;;;91.40;40.47;;;11.60;96.30;;;;;;5023698;28;20217;-69
2022/11/13 00:45:51;;;;;;;118.57;40.10;;;11.60;96.40;;;;;;5019818;28;20224;-69
2022/11/13 00:48:36;;;;;;;122.73;38.07;;;11.60;96.40;;;;;;5023906;28;20218;-69
2022/11/13 00:51:22;;;;;;;116.00;38.23;;;11.60;96.50;;;;;;5024103;28;20219;-69
2022/11/13 00:54:07;;;;;;;163.47;40.70;;;11.60;96.40;;;;;;5020073;28;20206;-69
2022/11/13 00:56:53;;;;;;;108.27;39.57;;;11.50;96.40;;;;;;5025573;28;20296;-69
2022/11/13 00:59:38;;;;;;;125.07;37.53;;;11.50;96.40;;;;;;5024449;28;20207;-69
2022/11/13 01:02:24;;;;;;;87.13;38.03;;;11.50;96.50;;;;;;5025228;28;20657;-68
2022/11/13 01:05:09;;;;;;;120.90;36.93;;;11.50;96.60;;;;;;5021053;28;20570;-69
2022/11/13 01:07:55;;;;;;;128.50;37.07;;;11.50;96.60;;;;;;5021353;28;20207;-69
2022/11/13 01:10:44;;;;;;;69.60;34.00;;;11.40;96.60;;;;;;5025240;28;20205;-69
2022/11/13 01:13:39;;;;;;;77.13;33.93;;;11.40;96.60;;;;;;5021142;28;20376;-69
2022/11/13 01:16:27;;;;;;;81.77;33.77;;;11.40;96.70;;;;;;5023405;28;20255;-69
2022/11/13 01:19:13;;;;;;;124.63;33.57;;;11.40;96.60;;;;;;5025136;28;20208;-69
2022/11/13 01:21:59;;;;;;;87.83;33.50;;;11.40;96.50;;;;;;5022488;28;20261;-69
2022/11/13 01:24:44;;;;;;;80.27;34.10;;;11.30;96.80;;;;;;5020746;28;20672;-69
2022/11/13 01:27:30;;;;;;;85.30;33.40;;;11.30;96.60;;;;;;5021258;28;20216;-68
2022/11/13 01:30:16;;;;;;;65.73;32.30;;;11.30;96.60;;;;;;5025207;28;20658;-68
2022/11/13 01:33:02;;;;;;;105.50;34.53;;;11.30;96.60;;;;;;5023152;28;20429;-68
2022/11/13 01:35:47;;;;;;;69.63;33.23;;;11.20;96.60;;;;;;5021894;28;20208;-69
2022/11/13 01:38:33;;;;;;;88.87;33.60;;;11.20;96.60;;;;;;5020393;28;20546;-68
2022/11/13 01:41:28;;;;;;;85.87;33.00;;;11.20;96.60;;;;;;5022757;28;20653;-69
2022/11/13 01:44:15;;;;;;;67.17;32.80;;;11.10;96.50;;;;;;5023364;28;20209;-68
2022/11/13 01:47:02;;;;;;;88.87;32.20;;;11.10;96.50;;;;;;5021931;28;20326;-68
2022/11/13 01:49:51;;;;;;;72.83;30.13;;;11.10;96.50;;;;;;5022665;28;20257;-68
2022/11/13 01:52:40;;;;;;;66.70;29.83;;;11.10;96.40;;;;;;5023473;28;20229;-68
2022/11/13 01:55:25;;;;;;;77.97;27.67;;;11.00;96.30;;;;;;5022784;28;20674;-68
2022/11/13 01:58:12;;;;;;;84.83;29.07;;;11.00;96.30;;;;;;5026261;28;20358;-68
2022/11/13 02:00:58;;;;;;;58.23;28.63;;;10.90;96.20;;;;;;5020063;28;20209;-68
2022/11/13 02:03:44;;;;;;;45.13;27.93;;;10.90;96.20;;;;;;5023797;28;20271;-68
2022/11/13 02:06:39;;;;;;;48.13;28.07;;;10.80;96.20;;;;;;5022166;28;20284;-68
2022/11/13 02:09:34;;;;;;;61.93;27.90;;;10.80;96.20;;;;;;5023115;28;20224;-68
2022/11/13 02:12:42;;;;;;;45.67;26.13;;;10.70;96.10;;;;;;5019184;28;20251;-68
2022/11/13 02:15:32;;;;;;;51.03;28.47;;;10.60;96.00;;;;;;5032831;28;20219;-68
2022/11/13 02:18:20;;;;;;;46.87;26.90;;;10.60;96.00;;;;;;5023496;28;20212;-68
2022/11/13 02:21:27;;;;;;;40.60;26.07;;;10.50;96.00;;;;;;5020660;28;20706;-68
2022/11/13 02:24:31;;;;;;;40.70;27.00;;;10.50;96.00;;;;;;5019172;28;20216;-68
2022/11/13 02:27:46;;;;;;;32.83;24.73;;;10.40;96.00;;;;;;5024708;28;20231;-68
2022/11/13 02:30:34;;;;;;;38.93;25.93;;;10.40;96.00;;;;;;5021426;28;20645;-68
2022/11/13 02:33:30;;;;;;;32.80;26.00;;;10.30;95.90;;;;;;5022106;28;20359;-68
2022/11/13 02:36:17;;;;;;;26.97;23.73;;;10.30;95.90;;;;;;5021853;28;20540;-68
2022/11/13 02:39:09;;;;;;;38.67;23.07;;;10.30;95.90;;;;;;5024567;28;20653;-68
2022/11/13 02:41:54;;;;;;;27.87;21.87;;;10.20;95.80;;;;;;5023936;28;20591;-68
2022/11/13 02:44:40;;;;;;;28.13;22.17;;;10.20;95.80;;;;;;5020130;28;20251;-68
2022/11/13 02:47:26;;;;;;;30.13;21.67;;;10.20;95.60;;;;;;5023808;28;20215;-68
2022/11/13 02:50:11;;;;;;;36.70;21.77;;;10.10;95.40;;;;;;5022096;28;20605;-68
2022/11/13 02:52:57;;;;;;;25.07;22.07;;;10.00;95.50;;;;;;5019697;28;20542;-68
2022/11/13 02:55:43;;;;;;;27.67;20.57;;;10.00;95.70;;;;;;5021446;28;20541;-68
2022/11/13 02:58:28;;;;;;;33.63;23.03;;;9.90;95.70;;;;;;5023776;28;20765;-68
2022/11/13 03:01:14;;;;;;;28.67;22.87;;;9.90;95.70;;;;;;5025276;28;20216;-68
2022/11/13 03:04:00;;;;;;;48.17;22.20;;;9.80;95.70;;;;;;5017570;28;20587;-68
2022/11/13 03:06:45;;;;;;;28.50;22.53;;;9.80;95.70;;;;;;5021128;28;20221;-68
2022/11/13 03:09:31;;;;;;;28.77;22.50;;;9.70;95.60;;;;;;5021521;28;20264;-68
2022/11/13 03:12:16;;;;;;;30.80;22.73;;;9.70;95.50;;;;;;5024255;28;20317;-68
2022/11/13 03:15:02;;;;;;;28.30;22.67;;;9.60;95.40;;;;;;5023096;28;20206;-68
2022/11/13 03:17:48;;;;;;;30.70;23.13;;;9.60;95.30;;;;;;5022845;28;20219;-68
2022/11/13 03:20:36;;;;;;;28.87;23.40;;;9.50;95.40;;;;;;5023900;28;20216;-68
2022/11/13 03:23:21;;;;;;;28.73;22.57;;;9.50;95.50;;;;;;5022636;28;20255;-68
2022/11/13 03:26:10;;;;;;;29.03;23.53;;;9.40;95.60;;;;;;5020103;28;21071;-68
2022/11/13 03:28:55;;;;;;;29.03;24.37;;;9.40;95.60;;;;;;5020334;28;20215;-68
2022/11/13 03:31:40;;;;;;;27.90;23.70;;;9.40;95.60;;;;;;5023309;28;20343;-68
2022/11/13 03:34:26;;;;;;;31.13;22.33;;;9.30;95.60;;;;;;5024780;28;20641;-68
2022/11/13 03:37:11;;;;;;;25.53;22.47;;;9.30;95.90;;;;;;5023080;28;20200;-68
2022/11/13 03:39:57;;;;;;;26.13;21.90;;;9.30;95.60;;;;;;5020022;28;20311;-68
2022/11/13 03:42:43;;;;;;;26.83;21.00;;;9.30;95.60;;;;;;5024656;28;20723;-68
2022/11/13 03:45:28;;;;;;;26.63;20.73;;;9.20;95.60;;;;;;5026581;28;20304;-68
2022/11/13 03:48:15;;;;;;;24.67;20.10;;;9.30;95.60;;;;;;5023374;28;20299;-68
2022/11/13 03:51:01;;;;;;;27.60;20.53;;;9.20;95.50;;;;;;5022533;28;20215;-68
2022/11/13 03:53:46;;;;;;;22.63;19.97;;;9.20;95.40;;;;;;5023041;28;20228;-68
2022/11/13 03:56:31;;;;;;;22.40;19.10;;;9.20;95.40;;;;;;5024570;28;20211;-68
2022/11/13 03:59:17;;;;;;;22.13;19.73;;;9.20;95.40;;;;;;5026279;28;20542;-68
2022/11/13 04:02:02;;;;;;;22.73;20.23;;;9.20;95.40;;;;;;5024161;28;20212;-68
2022/11/13 04:04:48;;;;;;;22.47;19.83;;;9.10;95.30;;;;;;5024519;28;20211;-68
2022/11/13 04:07:33;;;;;;;22.27;19.87;;;9.10;95.40;;;;;;5023303;28;20221;-68
2022/11/13 04:10:19;;;;;;;22.93;19.77;;;9.10;95.40;;;;;;5023879;28;20212;-68
2022/11/13 04:13:05;;;;;;;24.07;18.90;;;9.10;95.40;;;;;;5024235;28;20259;-68
2022/11/13 04:15:50;;;;;;;23.93;18.70;;;9.10;95.40;;;;;;5026569;28;20203;-68
2022/11/13 04:18:36;;;;;;;24.50;19.43;;;9.00;95.30;;;;;;5026337;28;20202;-68
2022/11/13 04:21:21;;;;;;;21.57;19.03;;;9.00;95.30;;;;;;5026297;28;20330;-68
2022/11/13 04:24:07;;;;;;;26.10;19.40;;;9.00;95.40;;;;;;5022103;28;20335;-68
2022/11/13 04:26:54;;;;;;;22.57;20.17;;;9.00;95.50;;;;;;5022191;28;20223;-68
2022/11/13 04:29:39;;;;;;;21.47;18.93;;;9.10;95.60;;;;;;5026654;28;20211;-68
2022/11/13 04:32:25;;;;;;;23.47;20.70;;;9.10;95.70;;;;;;5026958;28;20219;-68
2022/11/13 04:35:11;;;;;;;23.57;20.20;;;9.20;95.70;;;;;;5022303;28;20640;-68
2022/11/13 04:37:56;;;;;;;22.23;19.77;;;9.30;95.70;;;;;;5023036;28;20202;-68
2022/11/13 04:40:42;;;;;;;21.97;18.77;;;9.30;95.70;;;;;;5025206;28;20223;-68
2022/11/13 04:43:28;;;;;;;21.57;19.23;;;9.40;95.70;;;;;;5023240;28;20712;-68
2022/11/13 04:46:13;;;;;;;21.57;19.20;;;9.40;95.70;;;;;;5023404;28;20868;-68
2022/11/13 04:48:59;;;;;;;20.47;18.30;;;9.40;95.60;;;;;;5021523;28;20230;-68
2022/11/13 04:51:44;;;;;;;23.00;20.47;;;9.30;95.40;;;;;;5024297;28;20282;-68
2022/11/13 04:54:30;;;;;;;20.90;18.70;;;9.30;95.70;;;;;;5027172;28;20260;-68
2022/11/13 04:57:16;;;;;;;22.17;18.37;;;9.20;95.40;;;;;;5022706;28;20665;-68
2022/11/13 05:00:04;;;;;;;20.37;18.17;;;9.20;95.40;;;;;;5021548;28;20557;-68
2022/11/13 05:02:49;;;;;;;22.63;19.53;;;9.10;95.40;;;;;;5024228;28;20206;-68
2022/11/13 05:05:35;;;;;;;20.63;17.67;;;9.10;95.60;;;;;;5024585;28;20214;-68
2022/11/13 05:08:20;;;;;;;20.00;17.17;;;9.10;95.30;;;;;;5023579;28;20211;-68
2022/11/13 05:11:06;;;;;;;19.30;17.23;;;9.00;95.40;;;;;;5023500;28;20212;-68
2022/11/13 05:13:51;;;;;;;19.20;16.60;;;9.00;95.40;;;;;;5024743;28;20573;-68
2022/11/13 05:16:37;;;;;;;18.53;16.53;;;9.00;95.40;;;;;;5024628;28;20213;-68
2022/11/13 05:19:22;;;;;;;18.13;16.23;;;8.90;95.30;;;;;;5023986;28;20652;-67
2022/11/13 05:22:08;;;;;;;18.37;16.40;;;8.90;95.20;;;;;;5020773;28;20294;-68
2022/11/13 05:24:54;;;;;;;18.23;16.30;;;8.90;95.20;;;;;;5026446;28;20262;-68
2022/11/13 05:27:40;;;;;;;18.10;15.70;;;8.80;95.20;;;;;;5023737;28;20216;-68
2022/11/13 05:30:25;;;;;;;22.83;17.43;;;8.80;95.20;;;;;;5022045;28;20759;-68
2022/11/13 05:33:11;;;;;;;22.13;18.23;;;8.80;95.20;;;;;;5021322;28;20692;-67
2022/11/13 05:36:04;;;;;;;35.90;17.07;;;8.80;95.20;;;;;;5023792;28;20206;-68
2022/11/13 05:38:50;;;;;;;21.50;16.97;;;8.70;95.20;;;;;;5023245;28;20529;-68
2022/11/13 05:41:35;;;;;;;21.83;17.33;;;8.70;95.20;;;;;;5023428;28;20214;-68
2022/11/13 05:44:21;;;;;;;31.13;18.47;;;8.70;95.20;;;;;;5021803;28;20591;-68
2022/11/13 05:47:06;;;;;;;26.77;16.40;;;8.70;95.10;;;;;;5024316;28;20684;-68
2022/11/13 05:49:52;;;;;;;57.37;16.97;;;8.70;95.10;;;;;;5024147;28;20551;-68
2022/11/13 05:52:37;;;;;;;22.33;15.60;;;8.60;95.10;;;;;;5023910;28;20210;-68
2022/11/13 05:55:23;;;;;;;15.87;14.27;;;8.60;95.00;;;;;;5021341;28;20210;-68
2022/11/13 05:58:10;;;;;;;18.93;14.87;;;8.60;95.00;;;;;;5023185;28;20265;-68
2022/11/13 06:01:17;;;;;;;18.13;15.30;;;8.50;95.00;;;;;;5025033;28;20270;-67
2022/11/13 06:04:05;;;;;;;16.37;14.67;;;8.50;95.10;;;;;;5023144;28;20545;-68
2022/11/13 06:06:51;;;;;;;15.97;14.33;;;8.50;95.10;;;;;;5021385;28;20220;-67
2022/11/13 06:09:36;;;;;;;15.87;14.17;;;8.40;95.00;;;;;;5022645;28;20211;-67
2022/11/13 06:12:22;;;;;;;16.07;14.47;;;8.40;95.00;;;;;;5025144;28;20216;-68
2022/11/13 06:15:08;;;;;;;16.53;14.93;;;8.40;95.00;;;;;;5021398;28;20233;-68
2022/11/13 06:17:54;;;;;;;18.20;16.30;;;8.40;95.00;;;;;;5021737;28;20316;-67
2022/11/13 06:20:39;;;;;;;16.80;15.10;;;8.40;94.80;;;;;;5021420;28;20211;-67
2022/11/13 06:23:25;;;;;;;16.73;15.10;;;8.30;94.80;;;;;;5024432;28;20237;-68
2022/11/13 06:26:23;;;;;;;17.87;15.47;;;8.30;95.00;;;;;;5023596;28;20202;-68
2022/11/13 06:29:12;;;;;;;17.50;15.60;;;8.30;95.00;;;;;;5020702;28;20210;-67
2022/11/13 06:31:58;;;;;;;17.77;15.90;;;8.30;95.10;;;;;;5023011;28;20222;-67
2022/11/13 06:34:43;;;;;;;17.17;15.43;;;8.30;95.20;;;;;;5023211;28;20332;-67
2022/11/13 06:37:29;;;;;;;17.27;15.07;;;8.30;95.20;;;;;;5019774;28;20210;-67
2022/11/13 06:40:18;;;;;;;17.10;15.30;;;8.30;95.30;;;;;;5022595;28;20338;-67
2022/11/13 06:43:04;;;;;;;17.90;16.00;;;8.40;95.40;;;;;;5022685;28;20211;-67
2022/11/13 06:45:50;;;;;;;18.87;15.57;;;8.40;95.30;;;;;;5023841;28;20214;-67
2022/11/13 06:48:35;;;;;;;18.90;16.90;;;8.40;95.30;;;;;;5019329;28;20606;-67
2022/11/13 06:51:23;;;;;;;17.20;15.43;;;8.50;95.40;;;;;;5021341;28;20707;-67
2022/11/13 06:54:09;;;;;;;18.70;16.70;;;8.60;95.60;;;;;;5026454;28;20281;-67
2022/11/13 06:56:55;;;;;;;18.57;16.53;;;8.60;95.30;;;;;;5021129;28;20219;-67
2022/11/13 06:59:42;;;;;;;18.30;16.40;;;8.70;95.40;;;;;;5020827;28;20202;-67
2022/11/13 07:02:27;;;;;;;18.50;15.87;;;8.80;95.40;;;;;;5019481;28;20206;-68
2022/11/13 07:05:13;;;;;;;18.27;16.37;;;8.90;95.40;;;;;;5021571;28;20210;-68
2022/11/13 07:07:59;;;;;;;17.53;15.70;;;9.00;95.40;;;;;;5020809;28;20207;-67
2022/11/13 07:10:53;;;;;;;16.73;14.93;;;9.10;95.40;;;;;;5021971;28;20218;-68
2022/11/13 07:13:40;;;;;;;17.10;15.10;;;9.10;95.30;;;;;;5021465;28;20227;-68
2022/11/13 07:16:25;;;;;;;16.70;13.27;;;9.20;95.30;;;;;;5023324;28;20213;-67
2022/11/13 07:19:28;;;;;;;17.40;13.97;;;9.30;95.30;;;;;;5026480;28;20710;-67
2022/11/13 07:22:14;;;;;;;16.90;13.43;;;9.40;95.30;;;;;;5028574;28;20234;-68
2022/11/13 07:24:59;;;;;;;16.10;12.30;;;9.40;95.30;;;;;;5023933;28;20286;-67
2022/11/13 07:27:45;;;;;;;14.17;11.33;;;9.50;95.40;;;;;;5026834;28;20301;-67
2022/11/13 07:30:30;;;;;;;11.67;10.23;;;9.60;95.40;;;;;;5028735;28;20287;-67
2022/11/13 07:33:16;;;;;;;12.47;9.70;;;9.60;95.40;;;;;;5026849;28;20246;-68
2022/11/13 07:36:02;;;;;;;11.73;8.67;;;9.70;95.50;;;;;;5023587;28;20212;-67
2022/11/13 07:38:47;;;;;;;13.10;8.60;;;9.80;95.50;;;;;;5024574;28;20249;-67
2022/11/13 07:41:33;;;;;;;9.23;8.03;;;9.80;95.50;;;;;;5029312;28;20214;-67
2022/11/13 07:44:18;;;;;;;8.07;6.70;;;10.00;95.50;;;;;;5025752;28;20270;-67
2022/11/13 07:47:24;;;;;;;12.60;7.50;;;10.10;95.50;;;;;;5024347;28;20312;-67
2022/11/13 07:50:09;;;;;;;9.70;7.27;;;10.20;95.50;;;;;;5024105;28;20319;-67
2022/11/13 07:53:04;;;;;;;8.27;6.13;;;10.30;95.50;;;;;;5027857;28;20211;-68
2022/11/13 07:55:50;;;;;;;10.27;6.30;;;10.40;95.40;;;;;;5022925;28;20291;-68
2022/11/13 07:58:35;;;;;;;10.87;7.23;;;10.50;95.40;;;;;;5023302;28;20281;-68
2022/11/13 08:01:21;;;;;;;9.17;6.53;;;10.50;95.30;;;;;;5024519;28;20204;-68
2022/11/13 08:04:06;;;;;;;9.10;7.07;;;10.60;95.30;;;;;;5026683;28;20215;-68
2022/11/13 08:06:52;;;;;;;10.57;7.83;;;10.70;95.30;;;;;;5025358;28;20359;-68
2022/11/13 08:09:37;;;;;;;10.77;7.10;;;10.80;95.40;;;;;;5024575;28;20219;-67
2022/11/13 08:12:23;;;;;;;13.80;7.93;;;10.90;95.40;;;;;;5023131;28;20227;-68
2022/11/13 08:15:09;;;;;;;9.97;6.77;;;11.00;95.30;;;;;;5023005;28;20243;-68
2022/11/13 08:18:00;;;;;;;12.63;7.00;;;11.20;95.00;;;;;;5023636;28;20211;-68
2022/11/13 08:20:45;;;;;;;9.90;7.50;;;11.30;94.80;;;;;;5025499;28;20208;-68
2022/11/13 08:23:31;;;;;;;11.80;8.30;;;11.40;94.70;;;;;;5024704;28;20379;-68
2022/11/13 08:26:17;;;;;;;11.07;8.03;;;11.60;94.50;;;;;;5025927;28;20670;-68
2022/11/13 08:29:03;;;;;;;8.60;7.10;;;11.70;94.30;;;;;;5027490;28;20662;-67
2022/11/13 08:31:49;;;;;;;10.27;7.23;;;11.70;94.10;;;;;;5023908;28;20288;-68
2022/11/13 08:34:36;;;;;;;14.63;8.90;;;11.90;94.00;;;;;;5019654;28;20229;-68
2022/11/13 08:37:21;;;;;;;10.20;7.37;;;11.90;93.90;;;;;;5025095;28;20213;-68
2022/11/13 08:40:08;;;;;;;13.10;8.30;;;12.00;93.90;;;;;;5023825;28;20702;-68
2022/11/13 08:42:58;;;;;;;9.60;7.80;;;12.10;93.90;;;;;;5022287;28;20227;-68
2022/11/13 08:45:47;;;;;;;10.00;8.13;;;12.10;93.90;;;;;;5022061;28;20227;-68
2022/11/13 08:48:33;;;;;;;10.27;7.67;;;12.20;93.90;;;;;;5024887;28;20203;-68
2022/11/13 08:51:18;;;;;;;10.60;8.17;;;12.30;93.90;;;;;;5025755;28;20213;-68
2022/11/13 08:54:03;;;;;;;9.57;8.57;;;12.30;93.90;;;;;;5021034;28;20226;-68
2022/11/13 08:56:49;;;;;;;13.83;8.47;;;12.40;93.90;;;;;;5023687;28;20710;-68
2022/11/13 08:59:41;;;;;;;79.17;56.03;;;12.40;93.90;;;;;;5028055;28;20533;-68
2022/11/13 09:02:27;;;;;;;13.87;10.30;;;12.40;93.90;;;;;;5020427;28;20210;-68
2022/11/13 09:05:13;;;;;;;38.93;23.60;;;12.40;93.90;;;;;;5024307;28;20214;-68
2022/11/13 09:08:00;;;;;;;1999.90;999.90;;;12.40;93.90;;;;;;5022765;28;20208;-68
2022/11/13 09:10:45;;;;;;;1999.90;978.37;;;12.50;94.00;;;;;;5024272;28;20594;-68
2022/11/13 09:13:32;;;;;;;1999.90;999.90;;;12.60;94.00;;;;;;5022509;28;20222;-68
2022/11/13 09:16:18;;;;;;;1089.30;546.53;;;12.60;93.90;;;;;;5022975;28;20240;-68
2022/11/13 09:19:03;;;;;;;1963.90;915.27;;;12.70;93.80;;;;;;5023930;28;20533;-68
2022/11/13 09:21:50;;;;;;;1132.17;513.43;;;12.70;94.10;;;;;;5023471;28;20301;-68
2022/11/13 09:24:36;;;;;;;300.00;162.63;;;12.70;93.70;;;;;;5022290;28;20246;-68
2022/11/13 09:27:21;;;;;;;719.10;296.47;;;12.70;93.50;;;;;;5022384;28;20321;-68
2022/11/13 09:30:08;;;;;;;900.40;422.77;;;12.80;93.60;;;;;;5024487;28;20214;-68
2022/11/13 09:32:56;;;;;;;525.20;259.83;;;12.80;93.50;;;;;;5024986;28;20210;-68
2022/11/13 09:35:42;;;;;;;1523.17;595.07;;;12.80;93.60;;;;;;5021540;28;20228;-68
2022/11/13 09:38:30;;;;;;;225.33;123.90;;;12.90;93.60;;;;;;5022834;28;20266;-68
2022/11/13 09:41:25;;;;;;;450.03;214.27;;;13.00;93.60;;;;;;5021664;28;20327;-68
2022/11/13 09:44:19;;;;;;;590.83;227.60;;;13.00;93.80;;;;;;5024919;28;20208;-68
2022/11/13 09:47:22;;;;;;;88.50;38.60;;;13.10;93.40;;;;;;5026243;28;20220;-68
2022/11/13 09:50:30;;;;;;;819.93;385.00;;;13.10;93.40;;;;;;5021154;28;20211;-68
2022/11/13 09:53:16;;;;;;;23.47;14.47;;;13.20;93.30;;;;;;5021728;28;20376;-68
2022/11/13 09:56:19;;;;;;;98.57;39.67;;;13.20;93.30;;;;;;5026843;28;20204;-68
2022/11/13 09:59:19;;;;;;;249.80;123.23;;;13.30;93.30;;;;;;5020450;28;20217;-68
2022/11/13 10:02:19;;;;;;;537.33;244.37;;;13.30;93.30;;;;;;5023335;28;20283;-68
2022/11/13 10:05:10;;;;;;;1314.57;624.97;;;13.40;93.30;;;;;;5035833;28;20293;-68
2022/11/13 10:08:10;;;;;;;601.63;331.07;;;13.40;93.30;;;;;;5021433;28;20705;-69
2022/11/13 10:11:04;;;;;;;109.67;66.10;;;13.50;93.10;;;;;;5020391;28;20655;-68
2022/11/13 10:13:52;;;;;;;391.70;183.80;;;13.60;93.00;;;;;;5027096;28;20666;-68
2022/11/13 10:16:45;;;;;;;153.13;67.20;;;13.60;93.00;;;;;;5024798;28;20256;-68
2022/11/13 10:19:39;;;;;;;58.27;29.27;;;13.70;93.00;;;;;;5026065;28;20266;-68
2022/11/13 10:22:33;;;;;;;187.13;81.17;;;13.80;93.00;;;;;;5021074;28;20753;-68
2022/11/13 10:25:22;;;;;;;17.93;13.93;;;13.80;93.10;;;;;;5019962;28;20217;-69
2022/11/13 10:28:18;;;;;;;24.10;10.23;;;13.90;93.20;;;;;;5021610;28;20715;-68
2022/11/13 10:31:24;;;;;;;14.37;9.17;;;14.10;93.00;;;;;;5022700;28;20304;-68
2022/11/13 10:34:11;;;;;;;13.50;7.80;;;14.20;92.20;;;;;;5022032;28;20244;-68
2022/11/13 10:37:17;;;;;;;13.80;8.23;;;14.20;91.60;;;;;;5021768;28;20217;-68
2022/11/13 10:40:03;;;;;;;15.10;8.87;;;14.30;91.20;;;;;;5019045;28;20303;-68
2022/11/13 10:42:49;;;;;;;12.63;8.67;;;14.40;90.80;;;;;;5021347;28;20534;-68
2022/11/13 10:45:35;;;;;;;12.90;8.27;;;14.40;90.50;;;;;;5020324;28;20549;-68
2022/11/13 10:48:27;;;;;;;9.93;8.30;;;14.40;90.40;;;;;;5023981;28;20212;-68
2022/11/13 10:51:28;;;;;;;13.90;8.57;;;14.40;90.20;;;;;;5050878;28;20273;-68
2022/11/13 10:54:20;;;;;;;12.63;8.23;;;14.40;90.20;;;;;;5025319;28;20353;-68
2022/11/13 10:57:17;;;;;;;11.37;9.17;;;14.40;90.00;;;;;;5023196;28;20206;-68
2022/11/13 11:00:22;;;;;;;12.47;8.70;;;14.50;89.90;;;;;;5027518;28;20534;-68
2022/11/13 11:03:13;;;;;;;13.00;9.10;;;14.50;89.40;;;;;;5029432;28;20290;-68
2022/11/13 11:06:03;;;;;;;10.80;7.97;;;14.70;89.50;;;;;;5027445;28;20276;-68
2022/11/13 11:08:49;;;;;;;12.50;9.00;;;14.70;88.90;;;;;;5028412;28;20211;-68
2022/11/13 11:14:55;;;;;;;11.20;9.07;;;14.80;87.60;;;;;;5023579;28;20227;-68
2022/11/13 11:17:50;;;;;;;13.13;10.13;;;14.90;87.40;;;;;;5027110;28;20671;-68
2022/11/13 11:20:41;;;;;;;10.97;9.07;;;15.10;87.30;;;;;;5027495;28;20300;-68
2022/11/13 11:23:51;;;;;;;10.77;8.97;;;15.20;85.80;;;;;;5026366;28;20258;-68
2022/11/13 11:26:52;;;;;;;14.87;10.40;;;15.30;85.40;;;;;;5026198;28;20545;-68
2022/11/13 11:29:43;;;;;;;14.13;10.03;;;15.40;85.20;;;;;;5022988;28;20304;-68
2022/11/13 11:32:47;;;;;;;12.80;9.43;;;15.40;85.20;;;;;;5025264;28;20211;-68
2022/11/13 11:35:44;;;;;;;13.00;10.20;;;15.50;85.30;;;;;;5025745;28;20758;-68
2022/11/13 11:38:43;;;;;;;15.77;9.90;;;15.60;85.40;;;;;;5025571;28;20209;-68
2022/11/13 11:41:37;;;;;;;10.70;8.00;;;15.60;84.70;;;;;;5026669;28;20213;-69
2022/11/13 11:44:51;;;;;;;10.30;8.57;;;15.70;83.50;;;;;;5027331;28;20214;-69
2022/11/13 11:47:37;;;;;;;13.60;9.87;;;15.80;82.90;;;;;;5026927;28;20219;-69
2022/11/13 11:51:06;;;;;;;14.87;9.60;;;15.80;82.70;;;;;;5026410;28;20208;-69
2022/11/13 11:54:02;;;;;;;11.67;8.97;;;15.80;81.20;;;;;;5025152;28;20218;-69
2022/11/13 11:56:52;;;;;;;11.13;9.53;;;15.80;80.60;;;;;;5026209;28;20268;-69
2022/11/13 12:00:03;;;;;;;12.93;9.60;;;15.80;81.20;;;;;;5023613;28;20301;-69
2022/11/13 12:02:57;;;;;;;12.03;8.90;;;15.90;80.60;;;;;;5022443;28;20637;-69
2022/11/13 12:06:06;;;;;;;11.83;9.60;;;15.90;80.60;;;;;;5035070;28;20218;-69
2022/11/13 12:09:05;;;;;;;12.70;9.20;;;15.90;80.30;;;;;;5025823;28;20215;-69
2022/11/13 12:11:54;;;;;;;14.67;9.93;;;16.00;79.70;;;;;;5026219;28;20537;-69
2022/11/13 12:14:54;;;;;;;14.87;9.13;;;15.90;79.80;;;;;;5023502;28;20243;-69
2022/11/13 12:18:02;;;;;;;15.03;10.07;;;16.00;79.90;;;;;;5024488;28;20287;-69
2022/11/13 12:21:26;;;;;;;11.60;9.30;;;16.10;80.30;;;;;;5025045;28;20218;-69
2022/11/13 12:24:40;;;;;;;10.37;8.03;;;16.30;79.90;;;;;;5019245;28;20347;-69
2022/11/13 12:27:40;;;;;;;12.13;9.80;;;16.40;79.60;;;;;;5023454;28;20640;-68
2022/11/13 12:30:41;;;;;;;14.47;9.57;;;16.50;78.80;;;;;;5026995;28;20238;-68
2022/11/13 12:33:32;;;;;;;13.10;9.40;;;16.70;78.00;;;;;;5023897;28;20233;-69
2022/11/13 12:36:19;;;;;;;13.40;10.00;;;16.70;77.90;;;;;;5023776;28;20688;-69
2022/11/13 12:39:28;;;;;;;13.63;9.87;;;16.80;78.40;;;;;;5023069;28;20202;-69
2022/11/13 12:42:34;;;;;;;13.67;8.93;;;16.90;77.60;;;;;;5024800;28;20305;-69
2022/11/13 12:45:28;;;;;;;11.73;9.50;;;17.00;75.80;;;;;;5024465;28;20214;-69
2022/11/13 12:48:13;;;;;;;10.10;8.43;;;17.00;75.80;;;;;;5020971;28;20302;-69
2022/11/13 12:51:06;;;;;;;10.97;8.43;;;17.10;75.20;;;;;;5023524;28;20215;-69
2022/11/13 12:53:53;;;;;;;13.83;9.53;;;17.20;75.00;;;;;;5024876;28;20290;-69
2022/11/13 12:56:39;;;;;;;11.53;8.87;;;17.30;73.60;;;;;;5028585;28;20319;-69
2022/11/13 12:59:39;;;;;;;14.77;8.83;;;17.30;73.40;;;;;;5024939;28;20680;-69
2022/11/13 13:02:55;;;;;;;10.13;8.40;;;17.40;72.70;;;;;;5025962;28;20216;-69
2022/11/13 13:06:07;;;;;;;13.57;9.60;;;17.30;73.20;;;;;;5024020;28;20208;-68
2022/11/13 13:09:19;;;;;;;12.20;9.23;;;17.30;73.10;;;;;;5014899;28;20302;-68
2022/11/13 13:12:14;;;;;;;12.67;8.63;;;17.20;73.50;;;;;;5026916;28;20221;-69
2022/11/13 13:15:23;;;;;;;12.23;7.70;;;17.10;72.80;;;;;;5028571;28;20377;-69
2022/11/13 13:18:37;;;;;;;7.67;6.87;;;17.10;73.00;;;;;;5024511;28;20222;-69
2022/11/13 13:21:22;;;;;;;9.57;7.00;;;17.00;72.60;;;;;;5022661;28;20650;-69
2022/11/13 13:24:30;;;;;;;11.13;6.97;;;16.90;71.50;;;;;;5024217;28;20678;-69
2022/11/13 13:27:25;;;;;;;7.70;6.40;;;16.80;71.30;;;;;;5028026;28;20272;-69
2022/11/13 13:30:22;;;;;;;11.07;6.93;;;16.80;71.60;;;;;;5022817;28;20647;-69
2022/11/13 13:33:26;;;;;;;9.53;6.73;;;16.70;71.70;;;;;;5023168;28;20701;-69
2022/11/13 13:36:12;;;;;;;10.17;7.03;;;16.60;71.70;;;;;;5024138;28;21069;-69
2022/11/13 13:39:03;;;;;;;9.50;7.00;;;16.60;72.30;;;;;;5021977;28;20208;-69
2022/11/13 13:42:10;;;;;;;9.63;6.90;;;16.60;72.80;;;;;;5034486;28;20203;-69
2022/11/13 13:45:12;;;;;;;11.73;7.57;;;16.50;72.70;;;;;;5020330;28;20297;-69
2022/11/13 13:48:00;;;;;;;11.80;7.90;;;16.50;72.80;;;;;;5021851;28;20273;-69
2022/11/13 13:50:48;;;;;;;11.60;8.13;;;16.50;73.30;;;;;;5017488;28;20218;-69
2022/11/13 13:53:35;;;;;;;9.80;7.37;;;16.50;73.60;;;;;;5022051;28;20209;-69
2022/11/13 13:56:22;;;;;;;10.13;7.13;;;16.60;72.90;;;;;;5020588;28;20234;-69
2022/11/13 13:59:23;;;;;;;8.50;7.37;;;16.50;73.10;;;;;;5025841;28;20252;-69
2022/11/13 14:02:27;;;;;;;10.33;7.53;;;16.50;73.50;;;;;;5026234;28;20214;-69
2022/11/13 14:05:33;;;;;;;9.17;7.17;;;16.60;73.60;;;;;;5018055;28;20273;-69
2022/11/13 14:08:22;;;;;;;9.63;7.73;;;16.50;73.80;;;;;;5022038;28;20218;-69
2022/11/13 14:11:20;;;;;;;13.57;7.70;;;16.60;73.90;;;;;;5023851;28;20265;-69
2022/11/13 14:14:07;;;;;;;10.73;7.33;;;16.60;74.20;;;;;;5032078;28;20293;-69
2022/11/13 14:16:55;;;;;;;10.97;7.83;;;16.70;74.20;;;;;;5020599;28;20262;-69
2022/11/13 14:19:51;;;;;;;10.90;7.43;;;16.70;73.50;;;;;;5018918;28;20228;-70
2022/11/13 14:22:38;;;;;;;8.93;7.47;;;16.80;73.10;;;;;;5018836;28;20238;-69
2022/11/13 14:25:27;;;;;;;18.37;13.27;;;16.80;73.00;;;;;;5022445;28;20229;-69
2022/11/13 14:28:19;;;;;;;19.53;14.63;;;16.90;73.50;;;;;;5021767;28;20649;-69
2022/11/13 14:31:07;;;;;;;18.67;13.10;;;16.80;74.30;;;;;;5019095;28;20266;-69
2022/11/13 14:33:53;;;;;;;22.37;13.90;;;16.80;75.10;;;;;;5020346;28;20659;-69